sensor_id;sensor_type;location;lat;lon;timestamp;temperature;humidity
10788;DHT22;5446;50.826;4.380;2023-06-26T00:00:45;23.00;99.90
10788;DHT22;5446;50.826;4.380;2023-06-26T00:03:12;22.90;99.90
10788;DHT22;5446;50.826;4.380;2023-06-26T00:05:41;22.80;99.90
10788;DHT22;5446;50.826;4.380;2023-06-26T00:08:07;22.80;99.90
10788;DHT22;5446;50.826;4.380;2023-06-26T00:10:33;22.80;99.90
10788;DHT22;5446;50.826;4.380;2023-06-26T00:12:59;22.60;99.90
10788;DHT22;5446;50.826;4.380;2023-06-26T00:15:25;22.60;99.90
10788;DHT22;5446;50.826;4.380;2023-06-26T00:17:51;22.40;99.90
10788;DHT22;5446;50.826;4.380;2023-06-26T00:20:17;22.30;99.90
10788;DHT22;5446;50.826;4.380;2023-06-26T00:22:44;22.20;99.90
10788;DHT22;5446;50.826;4.380;2023-06-26T00:25:10;22.10;99.90
10788;DHT22;5446;50.826;4.380;2023-06-26T00:27:36;22.10;99.90
10788;DHT22;5446;50.826;4.380;2023-06-26T00:30:02;22.10;99.90
10788;DHT22;5446;50.826;4.380;2023-06-26T00:32:28;22.00;99.90
10788;DHT22;5446;50.826;4.380;2023-06-26T00:34:54;21.90;99.90
10788;DHT22;5446;50.826;4.380;2023-06-26T00:37:19;21.70;99.90
10788;DHT22;5446;50.826;4.380;2023-06-26T00:39:47;21.60;99.90
10788;DHT22;5446;50.826;4.380;2023-06-26T00:42:13;21.50;99.90
10788;DHT22;5446;50.826;4.380;2023-06-26T00:44:38;21.50;99.90
10788;DHT22;5446;50.826;4.380;2023-06-26T00:47:04;21.50;99.90
10788;DHT22;5446;50.826;4.380;2023-06-26T00:49:30;21.50;99.90
10788;DHT22;5446;50.826;4.380;2023-06-26T00:51:56;21.50;99.90
10788;DHT22;5446;50.826;4.380;2023-06-26T00:54:22;21.40;99.90
10788;DHT22;5446;50.826;4.380;2023-06-26T00:56:48;21.30;99.90
10788;DHT22;5446;50.826;4.380;2023-06-26T00:59:14;21.20;99.90
10788;DHT22;5446;50.826;4.380;2023-06-26T01:01:40;21.20;99.90
10788;DHT22;5446;50.826;4.380;2023-06-26T01:04:06;21.20;99.90
10788;DHT22;5446;50.826;4.380;2023-06-26T01:06:33;21.10;99.90
10788;DHT22;5446;50.826;4.380;2023-06-26T01:09:02;21.00;99.90
10788;DHT22;5446;50.826;4.380;2023-06-26T01:11:28;21.00;99.90
10788;DHT22;5446;50.826;4.380;2023-06-26T01:13:54;20.90;99.90
10788;DHT22;5446;50.826;4.380;2023-06-26T01:16:23;20.90;99.90
10788;DHT22;5446;50.826;4.380;2023-06-26T01:18:50;20.90;99.90
10788;DHT22;5446;50.826;4.380;2023-06-26T01:21:17;20.90;99.90
10788;DHT22;5446;50.826;4.380;2023-06-26T01:26:23;20.90;99.90
10788;DHT22;5446;50.826;4.380;2023-06-26T01:28:52;20.90;99.90
10788;DHT22;5446;50.826;4.380;2023-06-26T01:31:19;20.90;99.90
10788;DHT22;5446;50.826;4.380;2023-06-26T01:33:46;20.80;99.90
10788;DHT22;5446;50.826;4.380;2023-06-26T01:36:12;20.70;99.90
10788;DHT22;5446;50.826;4.380;2023-06-26T01:38:39;20.70;99.90
10788;DHT22;5446;50.826;4.380;2023-06-26T01:41:05;20.60;99.90
10788;DHT22;5446;50.826;4.380;2023-06-26T01:46:15;20.50;99.90
10788;DHT22;5446;50.826;4.380;2023-06-26T01:49:02;20.50;99.90
10788;DHT22;5446;50.826;4.380;2023-06-26T01:51:32;20.50;99.90
10788;DHT22;5446;50.826;4.380;2023-06-26T01:54:00;20.50;99.90
10788;DHT22;5446;50.826;4.380;2023-06-26T01:56:28;20.50;99.90
10788;DHT22;5446;50.826;4.380;2023-06-26T01:58:55;20.50;99.90
10788;DHT22;5446;50.826;4.380;2023-06-26T02:01:22;20.40;99.90
10788;DHT22;5446;50.826;4.380;2023-06-26T02:03:48;20.30;99.90
10788;DHT22;5446;50.826;4.380;2023-06-26T02:06:14;20.20;99.90
10788;DHT22;5446;50.826;4.380;2023-06-26T02:08:40;20.10;99.90
10788;DHT22;5446;50.826;4.380;2023-06-26T02:11:06;20.00;99.90
10788;DHT22;5446;50.826;4.380;2023-06-26T02:13:31;20.00;99.90
10788;DHT22;5446;50.826;4.380;2023-06-26T02:15:57;19.90;99.90
10788;DHT22;5446;50.826;4.380;2023-06-26T02:18:23;20.00;99.90
10788;DHT22;5446;50.826;4.380;2023-06-26T02:20:50;20.00;99.90
10788;DHT22;5446;50.826;4.380;2023-06-26T02:23:15;19.90;99.90
10788;DHT22;5446;50.826;4.380;2023-06-26T02:25:41;19.90;99.90
10788;DHT22;5446;50.826;4.380;2023-06-26T02:28:07;19.80;99.90
10788;DHT22;5446;50.826;4.380;2023-06-26T02:30:32;19.90;99.90
10788;DHT22;5446;50.826;4.380;2023-06-26T02:32:58;19.90;99.90
10788;DHT22;5446;50.826;4.380;2023-06-26T02:35:24;19.90;99.90
10788;DHT22;5446;50.826;4.380;2023-06-26T02:37:49;19.80;99.90
10788;DHT22;5446;50.826;4.380;2023-06-26T02:40:15;19.80;99.90
10788;DHT22;5446;50.826;4.380;2023-06-26T02:42:41;19.80;99.90
10788;DHT22;5446;50.826;4.380;2023-06-26T02:45:07;19.70;99.90
10788;DHT22;5446;50.826;4.380;2023-06-26T02:47:33;19.70;99.90
10788;DHT22;5446;50.826;4.380;2023-06-26T02:49:59;19.80;99.90
10788;DHT22;5446;50.826;4.380;2023-06-26T02:52:25;19.60;99.90
10788;DHT22;5446;50.826;4.380;2023-06-26T02:54:50;19.60;99.90
10788;DHT22;5446;50.826;4.380;2023-06-26T02:57:16;19.60;99.90
10788;DHT22;5446;50.826;4.380;2023-06-26T02:59:42;19.50;99.90
10788;DHT22;5446;50.826;4.380;2023-06-26T03:02:08;19.40;99.90
10788;DHT22;5446;50.826;4.380;2023-06-26T03:04:34;19.30;99.90
10788;DHT22;5446;50.826;4.380;2023-06-26T03:07:03;19.30;99.90
10788;DHT22;5446;50.826;4.380;2023-06-26T03:09:29;19.20;99.90
10788;DHT22;5446;50.826;4.380;2023-06-26T03:11:56;19.10;99.90
10788;DHT22;5446;50.826;4.380;2023-06-26T03:14:22;19.10;99.90
10788;DHT22;5446;50.826;4.380;2023-06-26T03:16:47;19.10;99.90
10788;DHT22;5446;50.826;4.380;2023-06-26T03:19:13;19.00;99.90
10788;DHT22;5446;50.826;4.380;2023-06-26T03:21:39;18.90;99.90
10788;DHT22;5446;50.826;4.380;2023-06-26T03:24:05;18.90;99.90
10788;DHT22;5446;50.826;4.380;2023-06-26T03:26:31;18.90;99.90
10788;DHT22;5446;50.826;4.380;2023-06-26T03:28:57;18.80;99.90
10788;DHT22;5446;50.826;4.380;2023-06-26T03:31:23;18.80;99.90
10788;DHT22;5446;50.826;4.380;2023-06-26T03:33:49;18.70;99.90
10788;DHT22;5446;50.826;4.380;2023-06-26T03:36:15;18.70;99.90
10788;DHT22;5446;50.826;4.380;2023-06-26T03:38:41;18.70;99.90
10788;DHT22;5446;50.826;4.380;2023-06-26T03:41:06;18.60;99.90
10788;DHT22;5446;50.826;4.380;2023-06-26T03:43:32;18.70;99.90
10788;DHT22;5446;50.826;4.380;2023-06-26T03:45:58;18.60;99.90
10788;DHT22;5446;50.826;4.380;2023-06-26T03:48:23;18.50;99.90
10788;DHT22;5446;50.826;4.380;2023-06-26T03:50:49;18.50;99.90
10788;DHT22;5446;50.826;4.380;2023-06-26T03:53:15;18.50;99.90
10788;DHT22;5446;50.826;4.380;2023-06-26T03:55:41;18.40;99.90
10788;DHT22;5446;50.826;4.380;2023-06-26T03:58:06;18.50;99.90
10788;DHT22;5446;50.826;4.380;2023-06-26T04:00:32;18.50;99.90
10788;DHT22;5446;50.826;4.380;2023-06-26T04:02:58;18.50;99.90
10788;DHT22;5446;50.826;4.380;2023-06-26T04:05:23;18.50;99.90
10788;DHT22;5446;50.826;4.380;2023-06-26T04:07:51;18.50;99.90
10788;DHT22;5446;50.826;4.380;2023-06-26T04:10:17;18.40;99.90
10788;DHT22;5446;50.826;4.380;2023-06-26T04:12:42;18.40;99.90
10788;DHT22;5446;50.826;4.380;2023-06-26T04:15:08;18.50;99.90
10788;DHT22;5446;50.826;4.380;2023-06-26T04:17:34;18.40;99.90
10788;DHT22;5446;50.826;4.380;2023-06-26T04:20:00;18.40;99.90
10788;DHT22;5446;50.826;4.380;2023-06-26T04:22:25;18.40;99.90
10788;DHT22;5446;50.826;4.380;2023-06-26T04:24:51;18.40;99.90
10788;DHT22;5446;50.826;4.380;2023-06-26T04:27:17;18.40;99.90
10788;DHT22;5446;50.826;4.380;2023-06-26T04:29:43;18.40;99.90
10788;DHT22;5446;50.826;4.380;2023-06-26T04:32:09;18.50;99.90
10788;DHT22;5446;50.826;4.380;2023-06-26T04:34:35;18.40;99.90
10788;DHT22;5446;50.826;4.380;2023-06-26T04:37:06;18.40;99.90
10788;DHT22;5446;50.826;4.380;2023-06-26T04:39:32;18.50;99.90
10788;DHT22;5446;50.826;4.380;2023-06-26T04:41:58;18.40;99.90
10788;DHT22;5446;50.826;4.380;2023-06-26T04:44:24;18.40;99.90
10788;DHT22;5446;50.826;4.380;2023-06-26T04:46:49;18.50;99.90
10788;DHT22;5446;50.826;4.380;2023-06-26T04:49:17;18.30;99.90
10788;DHT22;5446;50.826;4.380;2023-06-26T04:51:44;18.40;99.90
10788;DHT22;5446;50.826;4.380;2023-06-26T04:54:12;18.30;99.90
10788;DHT22;5446;50.826;4.380;2023-06-26T04:56:38;18.20;99.90
10788;DHT22;5446;50.826;4.380;2023-06-26T04:59:07;18.30;99.90
10788;DHT22;5446;50.826;4.380;2023-06-26T05:01:34;18.20;99.90
10788;DHT22;5446;50.826;4.380;2023-06-26T05:04:00;18.20;99.90
10788;DHT22;5446;50.826;4.380;2023-06-26T05:08:52;18.20;99.90
10788;DHT22;5446;50.826;4.380;2023-06-26T05:11:18;18.20;99.90
10788;DHT22;5446;50.826;4.380;2023-06-26T05:13:43;18.20;99.90
10788;DHT22;5446;50.826;4.380;2023-06-26T05:16:09;18.10;99.90
10788;DHT22;5446;50.826;4.380;2023-06-26T05:18:36;18.00;99.90
10788;DHT22;5446;50.826;4.380;2023-06-26T05:21:02;18.10;99.90
10788;DHT22;5446;50.826;4.380;2023-06-26T05:23:31;18.20;99.90
10788;DHT22;5446;50.826;4.380;2023-06-26T05:25:58;18.20;99.90
10788;DHT22;5446;50.826;4.380;2023-06-26T05:28:24;18.10;99.90
10788;DHT22;5446;50.826;4.380;2023-06-26T05:30:54;18.00;99.90
10788;DHT22;5446;50.826;4.380;2023-06-26T05:33:23;18.10;99.90
10788;DHT22;5446;50.826;4.380;2023-06-26T05:35:52;18.20;99.90
10788;DHT22;5446;50.826;4.380;2023-06-26T05:38:18;18.20;99.90
10788;DHT22;5446;50.826;4.380;2023-06-26T05:40:44;18.00;99.90
10788;DHT22;5446;50.826;4.380;2023-06-26T05:43:10;18.10;99.90
10788;DHT22;5446;50.826;4.380;2023-06-26T05:45:36;18.10;99.90
10788;DHT22;5446;50.826;4.380;2023-06-26T05:48:02;18.30;99.90
10788;DHT22;5446;50.826;4.380;2023-06-26T05:50:28;18.20;99.90
10788;DHT22;5446;50.826;4.380;2023-06-26T05:52:54;18.10;99.90
10788;DHT22;5446;50.826;4.380;2023-06-26T05:55:21;18.30;99.90
10788;DHT22;5446;50.826;4.380;2023-06-26T05:57:47;18.20;99.90
10788;DHT22;5446;50.826;4.380;2023-06-26T06:00:13;18.20;99.90
10788;DHT22;5446;50.826;4.380;2023-06-26T06:02:41;18.30;99.90
10788;DHT22;5446;50.826;4.380;2023-06-26T06:05:07;18.30;99.90
10788;DHT22;5446;50.826;4.380;2023-06-26T06:07:35;18.20;99.90
10788;DHT22;5446;50.826;4.380;2023-06-26T06:10:01;18.30;99.90
10788;DHT22;5446;50.826;4.380;2023-06-26T06:12:28;18.40;99.90
10788;DHT22;5446;50.826;4.380;2023-06-26T06:14:54;18.60;99.90
10788;DHT22;5446;50.826;4.380;2023-06-26T06:17:20;18.70;99.90
10788;DHT22;5446;50.826;4.380;2023-06-26T06:19:46;18.70;99.90
10788;DHT22;5446;50.826;4.380;2023-06-26T06:22:11;18.60;99.90
10788;DHT22;5446;50.826;4.380;2023-06-26T06:24:37;18.60;99.90
10788;DHT22;5446;50.826;4.380;2023-06-26T06:27:03;18.60;99.90
10788;DHT22;5446;50.826;4.380;2023-06-26T06:29:29;18.60;99.90
10788;DHT22;5446;50.826;4.380;2023-06-26T06:31:55;18.60;99.90
10788;DHT22;5446;50.826;4.380;2023-06-26T06:34:21;18.50;99.90
10788;DHT22;5446;50.826;4.380;2023-06-26T06:36:46;18.60;99.90
10788;DHT22;5446;50.826;4.380;2023-06-26T06:39:12;18.60;99.90
10788;DHT22;5446;50.826;4.380;2023-06-26T06:41:38;18.70;99.90
10788;DHT22;5446;50.826;4.380;2023-06-26T06:44:04;18.70;99.90
10788;DHT22;5446;50.826;4.380;2023-06-26T06:46:29;18.80;99.90
10788;DHT22;5446;50.826;4.380;2023-06-26T06:48:55;18.70;99.90
10788;DHT22;5446;50.826;4.380;2023-06-26T06:51:22;18.80;99.90
10788;DHT22;5446;50.826;4.380;2023-06-26T06:53:48;18.90;99.90
10788;DHT22;5446;50.826;4.380;2023-06-26T06:56:13;18.90;99.90
10788;DHT22;5446;50.826;4.380;2023-06-26T06:58:39;18.80;99.90
10788;DHT22;5446;50.826;4.380;2023-06-26T07:01:09;18.90;99.90
10788;DHT22;5446;50.826;4.380;2023-06-26T07:03:35;19.00;99.90
10788;DHT22;5446;50.826;4.380;2023-06-26T07:06:02;19.10;99.90
10788;DHT22;5446;50.826;4.380;2023-06-26T07:08:28;19.20;99.90
10788;DHT22;5446;50.826;4.380;2023-06-26T07:10:54;19.10;99.90
10788;DHT22;5446;50.826;4.380;2023-06-26T07:13:22;19.20;99.90
10788;DHT22;5446;50.826;4.380;2023-06-26T07:15:48;19.10;99.90
10788;DHT22;5446;50.826;4.380;2023-06-26T07:18:14;19.20;99.90
10788;DHT22;5446;50.826;4.380;2023-06-26T07:20:40;19.20;99.90
10788;DHT22;5446;50.826;4.380;2023-06-26T07:23:06;19.10;99.90
10788;DHT22;5446;50.826;4.380;2023-06-26T07:25:32;19.20;99.90
10788;DHT22;5446;50.826;4.380;2023-06-26T07:27:57;19.20;99.90
10788;DHT22;5446;50.826;4.380;2023-06-26T07:30:23;19.20;99.90
10788;DHT22;5446;50.826;4.380;2023-06-26T07:32:52;19.30;99.90
10788;DHT22;5446;50.826;4.380;2023-06-26T07:35:18;19.40;99.90
10788;DHT22;5446;50.826;4.380;2023-06-26T07:37:44;19.50;99.90
10788;DHT22;5446;50.826;4.380;2023-06-26T07:40:10;19.50;99.90
10788;DHT22;5446;50.826;4.380;2023-06-26T07:42:36;19.40;99.90
10788;DHT22;5446;50.826;4.380;2023-06-26T07:45:02;19.40;99.90
10788;DHT22;5446;50.826;4.380;2023-06-26T07:47:30;19.50;99.90
10788;DHT22;5446;50.826;4.380;2023-06-26T07:49:56;19.50;99.90
10788;DHT22;5446;50.826;4.380;2023-06-26T07:52:22;19.50;99.90
10788;DHT22;5446;50.826;4.380;2023-06-26T07:54:47;19.50;99.90
10788;DHT22;5446;50.826;4.380;2023-06-26T07:57:13;19.60;99.90
10788;DHT22;5446;50.826;4.380;2023-06-26T07:59:39;19.60;99.90
10788;DHT22;5446;50.826;4.380;2023-06-26T08:02:05;19.70;99.90
10788;DHT22;5446;50.826;4.380;2023-06-26T08:04:31;19.70;99.90
10788;DHT22;5446;50.826;4.380;2023-06-26T08:06:58;19.60;99.90
10788;DHT22;5446;50.826;4.380;2023-06-26T08:09:26;19.60;99.90
10788;DHT22;5446;50.826;4.380;2023-06-26T08:11:53;19.70;99.90
10788;DHT22;5446;50.826;4.380;2023-06-26T08:14:20;19.70;99.90
10788;DHT22;5446;50.826;4.380;2023-06-26T08:16:46;19.90;99.90
10788;DHT22;5446;50.826;4.380;2023-06-26T08:19:12;19.80;99.90
10788;DHT22;5446;50.826;4.380;2023-06-26T08:21:39;19.90;99.90
10788;DHT22;5446;50.826;4.380;2023-06-26T08:24:05;20.00;99.90
10788;DHT22;5446;50.826;4.380;2023-06-26T08:26:30;20.00;99.90
10788;DHT22;5446;50.826;4.380;2023-06-26T08:28:56;20.10;99.90
10788;DHT22;5446;50.826;4.380;2023-06-26T08:31:22;20.20;99.90
10788;DHT22;5446;50.826;4.380;2023-06-26T08:33:47;20.10;99.90
10788;DHT22;5446;50.826;4.380;2023-06-26T08:36:13;20.10;99.90
10788;DHT22;5446;50.826;4.380;2023-06-26T08:38:39;20.20;99.90
10788;DHT22;5446;50.826;4.380;2023-06-26T08:41:08;20.20;99.90
10788;DHT22;5446;50.826;4.380;2023-06-26T08:43:35;20.40;99.90
10788;DHT22;5446;50.826;4.380;2023-06-26T08:46:01;20.50;99.90
10788;DHT22;5446;50.826;4.380;2023-06-26T08:48:31;20.70;99.90
10788;DHT22;5446;50.826;4.380;2023-06-26T08:51:01;20.70;99.90
10788;DHT22;5446;50.826;4.380;2023-06-26T08:56:16;20.60;99.90
10788;DHT22;5446;50.826;4.380;2023-06-26T08:58:43;20.70;99.90
10788;DHT22;5446;50.826;4.380;2023-06-26T09:01:09;20.80;99.90
10788;DHT22;5446;50.826;4.380;2023-06-26T09:03:36;21.00;99.90
10788;DHT22;5446;50.826;4.380;2023-06-26T09:06:02;21.10;99.90
10788;DHT22;5446;50.826;4.380;2023-06-26T09:08:28;21.10;99.90
10788;DHT22;5446;50.826;4.380;2023-06-26T09:10:54;21.00;99.90
10788;DHT22;5446;50.826;4.380;2023-06-26T09:13:19;20.90;99.90
10788;DHT22;5446;50.826;4.380;2023-06-26T09:15:46;20.90;99.90
10788;DHT22;5446;50.826;4.380;2023-06-26T09:18:12;21.10;99.90
10788;DHT22;5446;50.826;4.380;2023-06-26T09:20:38;21.20;99.90
10788;DHT22;5446;50.826;4.380;2023-06-26T09:23:04;21.10;99.90
10788;DHT22;5446;50.826;4.380;2023-06-26T09:25:31;21.00;99.90
10788;DHT22;5446;50.826;4.380;2023-06-26T09:27:57;21.10;99.90
10788;DHT22;5446;50.826;4.380;2023-06-26T09:30:23;21.20;99.90
10788;DHT22;5446;50.826;4.380;2023-06-26T09:32:49;21.20;99.90
10788;DHT22;5446;50.826;4.380;2023-06-26T09:35:16;21.20;99.90
10788;DHT22;5446;50.826;4.380;2023-06-26T09:37:43;21.20;99.90
10788;DHT22;5446;50.826;4.380;2023-06-26T09:40:09;21.30;99.90
10788;DHT22;5446;50.826;4.380;2023-06-26T09:42:35;21.30;99.90
10788;DHT22;5446;50.826;4.380;2023-06-26T09:45:02;21.20;99.90
10788;DHT22;5446;50.826;4.380;2023-06-26T09:47:30;21.20;99.90
10788;DHT22;5446;50.826;4.380;2023-06-26T09:49:57;21.40;99.90
10788;DHT22;5446;50.826;4.380;2023-06-26T09:52:26;21.40;99.90
10788;DHT22;5446;50.826;4.380;2023-06-26T09:55:07;21.60;99.90
10788;DHT22;5446;50.826;4.380;2023-06-26T09:57:35;21.70;99.90
10788;DHT22;5446;50.826;4.380;2023-06-26T10:00:05;21.70;99.90
10788;DHT22;5446;50.826;4.380;2023-06-26T10:02:33;21.90;99.90
10788;DHT22;5446;50.826;4.380;2023-06-26T10:04:59;21.80;99.90
10788;DHT22;5446;50.826;4.380;2023-06-26T10:07:25;22.00;99.90
10788;DHT22;5446;50.826;4.380;2023-06-26T10:09:54;22.10;99.90
10788;DHT22;5446;50.826;4.380;2023-06-26T10:12:30;21.90;99.90
10788;DHT22;5446;50.826;4.380;2023-06-26T10:14:57;21.90;99.90
10788;DHT22;5446;50.826;4.380;2023-06-26T10:17:27;21.70;99.90
10788;DHT22;5446;50.826;4.380;2023-06-26T10:19:58;21.80;99.90
10788;DHT22;5446;50.826;4.380;2023-06-26T10:22:27;21.80;99.90
10788;DHT22;5446;50.826;4.380;2023-06-26T10:24:56;21.90;99.90
10788;DHT22;5446;50.826;4.380;2023-06-26T10:27:28;21.90;99.90
10788;DHT22;5446;50.826;4.380;2023-06-26T10:29:59;21.90;99.90
10788;DHT22;5446;50.826;4.380;2023-06-26T10:32:27;22.00;99.90
10788;DHT22;5446;50.826;4.380;2023-06-26T10:34:53;21.90;99.90
10788;DHT22;5446;50.826;4.380;2023-06-26T10:37:20;21.70;99.90
10788;DHT22;5446;50.826;4.380;2023-06-26T10:39:51;21.80;99.90
10788;DHT22;5446;50.826;4.380;2023-06-26T10:42:28;21.80;99.90
10788;DHT22;5446;50.826;4.380;2023-06-26T10:45:19;21.70;99.90
10788;DHT22;5446;50.826;4.380;2023-06-26T10:47:52;21.80;99.90
10788;DHT22;5446;50.826;4.380;2023-06-26T10:50:31;21.80;99.90
10788;DHT22;5446;50.826;4.380;2023-06-26T10:56:07;22.10;99.90
10788;DHT22;5446;50.826;4.380;2023-06-26T11:03:42;22.20;99.90
10788;DHT22;5446;50.826;4.380;2023-06-26T11:06:17;22.40;99.90
10788;DHT22;5446;50.826;4.380;2023-06-26T11:08:51;22.30;99.90
10788;DHT22;5446;50.826;4.380;2023-06-26T11:11:19;22.30;99.90
10788;DHT22;5446;50.826;4.380;2023-06-26T11:13:46;22.20;99.90
10788;DHT22;5446;50.826;4.380;2023-06-26T11:16:13;22.30;99.90
10788;DHT22;5446;50.826;4.380;2023-06-26T11:18:40;22.10;99.90
10788;DHT22;5446;50.826;4.380;2023-06-26T11:21:13;22.10;99.90
10788;DHT22;5446;50.826;4.380;2023-06-26T11:23:40;22.30;99.90
10788;DHT22;5446;50.826;4.380;2023-06-26T11:26:20;22.30;99.90
10788;DHT22;5446;50.826;4.380;2023-06-26T11:28:54;22.40;99.90
10788;DHT22;5446;50.826;4.380;2023-06-26T11:34:01;22.40;99.90
10788;DHT22;5446;50.826;4.380;2023-06-26T11:36:28;22.50;99.90
10788;DHT22;5446;50.826;4.380;2023-06-26T11:38:59;22.70;99.90
10788;DHT22;5446;50.826;4.380;2023-06-26T11:41:29;22.50;99.90
10788;DHT22;5446;50.826;4.380;2023-06-26T11:43:55;22.50;99.90
10788;DHT22;5446;50.826;4.380;2023-06-26T11:46:22;22.60;99.90
10788;DHT22;5446;50.826;4.380;2023-06-26T11:48:48;22.50;99.90
10788;DHT22;5446;50.826;4.380;2023-06-26T11:51:15;22.40;99.90
10788;DHT22;5446;50.826;4.380;2023-06-26T11:53:42;22.60;99.90
10788;DHT22;5446;50.826;4.380;2023-06-26T11:56:12;22.40;99.90
10788;DHT22;5446;50.826;4.380;2023-06-26T12:01:24;22.40;99.90
10788;DHT22;5446;50.826;4.380;2023-06-26T12:03:50;22.30;99.90
10788;DHT22;5446;50.826;4.380;2023-06-26T12:06:16;22.40;99.90
10788;DHT22;5446;50.826;4.380;2023-06-26T12:08:43;22.60;99.90
10788;DHT22;5446;50.826;4.380;2023-06-26T12:11:09;22.60;99.90
10788;DHT22;5446;50.826;4.380;2023-06-26T12:13:35;22.70;99.90
10788;DHT22;5446;50.826;4.380;2023-06-26T12:16:01;22.80;99.90
10788;DHT22;5446;50.826;4.380;2023-06-26T12:18:36;23.00;99.90
10788;DHT22;5446;50.826;4.380;2023-06-26T12:21:01;22.90;99.90
10788;DHT22;5446;50.826;4.380;2023-06-26T12:23:39;22.90;99.90
10788;DHT22;5446;50.826;4.380;2023-06-26T12:26:19;22.80;99.90
10788;DHT22;5446;50.826;4.380;2023-06-26T12:28:45;22.80;99.90
10788;DHT22;5446;50.826;4.380;2023-06-26T12:31:19;22.60;99.90
10788;DHT22;5446;50.826;4.380;2023-06-26T12:33:45;22.70;99.90
10788;DHT22;5446;50.826;4.380;2023-06-26T12:36:12;22.60;99.90
10788;DHT22;5446;50.826;4.380;2023-06-26T12:38:39;22.50;99.90
10788;DHT22;5446;50.826;4.380;2023-06-26T12:41:04;22.50;99.90
10788;DHT22;5446;50.826;4.380;2023-06-26T12:43:30;22.70;99.90
10788;DHT22;5446;50.826;4.380;2023-06-26T12:45:56;22.70;99.90
10788;DHT22;5446;50.826;4.380;2023-06-26T12:48:36;23.20;99.90
10788;DHT22;5446;50.826;4.380;2023-06-26T12:51:11;23.60;99.90
10788;DHT22;5446;50.826;4.380;2023-06-26T12:53:38;23.50;99.90
10788;DHT22;5446;50.826;4.380;2023-06-26T12:56:08;23.50;99.90
10788;DHT22;5446;50.826;4.380;2023-06-26T12:58:35;23.50;99.90
10788;DHT22;5446;50.826;4.380;2023-06-26T13:01:05;23.90;99.90
10788;DHT22;5446;50.826;4.380;2023-06-26T13:03:40;24.20;99.90
10788;DHT22;5446;50.826;4.380;2023-06-26T13:06:06;24.00;99.90
10788;DHT22;5446;50.826;4.380;2023-06-26T13:08:33;24.10;99.90
10788;DHT22;5446;50.826;4.380;2023-06-26T13:10:59;24.10;99.90
10788;DHT22;5446;50.826;4.380;2023-06-26T13:13:24;23.80;99.90
10788;DHT22;5446;50.826;4.380;2023-06-26T13:15:50;23.40;99.90
10788;DHT22;5446;50.826;4.380;2023-06-26T13:18:16;23.10;99.90
10788;DHT22;5446;50.826;4.380;2023-06-26T13:20:42;23.00;99.90
10788;DHT22;5446;50.826;4.380;2023-06-26T13:23:08;22.90;99.90
10788;DHT22;5446;50.826;4.380;2023-06-26T13:25:33;22.70;99.90
10788;DHT22;5446;50.826;4.380;2023-06-26T13:27:59;22.90;99.90
10788;DHT22;5446;50.826;4.380;2023-06-26T13:30:25;23.20;99.90
10788;DHT22;5446;50.826;4.380;2023-06-26T13:32:50;23.30;99.90
10788;DHT22;5446;50.826;4.380;2023-06-26T13:35:16;23.40;99.90
10788;DHT22;5446;50.826;4.380;2023-06-26T13:37:42;23.50;99.90
10788;DHT22;5446;50.826;4.380;2023-06-26T13:40:08;23.80;99.90
10788;DHT22;5446;50.826;4.380;2023-06-26T13:42:35;23.60;99.90
10788;DHT22;5446;50.826;4.380;2023-06-26T13:45:02;23.40;99.90
10788;DHT22;5446;50.826;4.380;2023-06-26T13:47:29;23.60;99.90
10788;DHT22;5446;50.826;4.380;2023-06-26T13:49:54;23.50;99.90
10788;DHT22;5446;50.826;4.380;2023-06-26T13:52:20;23.60;99.90
10788;DHT22;5446;50.826;4.380;2023-06-26T13:54:46;23.80;99.90
10788;DHT22;5446;50.826;4.380;2023-06-26T13:57:12;23.70;99.90
10788;DHT22;5446;50.826;4.380;2023-06-26T13:59:39;24.00;99.90
10788;DHT22;5446;50.826;4.380;2023-06-26T14:02:08;24.10;99.90
10788;DHT22;5446;50.826;4.380;2023-06-26T14:04:33;23.90;99.90
10788;DHT22;5446;50.826;4.380;2023-06-26T14:06:59;23.80;99.90
10788;DHT22;5446;50.826;4.380;2023-06-26T14:09:25;24.20;99.90
10788;DHT22;5446;50.826;4.380;2023-06-26T14:11:50;24.30;99.90
10788;DHT22;5446;50.826;4.380;2023-06-26T14:14:16;23.90;99.90
10788;DHT22;5446;50.826;4.380;2023-06-26T14:16:42;24.00;99.90
10788;DHT22;5446;50.826;4.380;2023-06-26T14:19:08;24.40;99.90
10788;DHT22;5446;50.826;4.380;2023-06-26T14:21:39;24.80;99.90
10788;DHT22;5446;50.826;4.380;2023-06-26T14:24:06;25.00;99.90
10788;DHT22;5446;50.826;4.380;2023-06-26T14:26:31;25.00;99.90
10788;DHT22;5446;50.826;4.380;2023-06-26T14:28:59;24.70;99.90
10788;DHT22;5446;50.826;4.380;2023-06-26T14:31:25;24.40;99.90
10788;DHT22;5446;50.826;4.380;2023-06-26T14:33:51;24.20;99.90
10788;DHT22;5446;50.826;4.380;2023-06-26T14:36:17;24.50;99.90
10788;DHT22;5446;50.826;4.380;2023-06-26T14:38:42;24.40;99.90
10788;DHT22;5446;50.826;4.380;2023-06-26T14:41:08;24.20;99.90
10788;DHT22;5446;50.826;4.380;2023-06-26T14:43:34;24.00;99.90
10788;DHT22;5446;50.826;4.380;2023-06-26T14:45:59;24.30;99.90
10788;DHT22;5446;50.826;4.380;2023-06-26T14:48:25;24.10;99.90
10788;DHT22;5446;50.826;4.380;2023-06-26T14:50:51;23.90;99.90
10788;DHT22;5446;50.826;4.380;2023-06-26T14:53:17;24.00;99.90
10788;DHT22;5446;50.826;4.380;2023-06-26T14:55:44;23.90;99.90
10788;DHT22;5446;50.826;4.380;2023-06-26T14:58:10;23.70;99.90
10788;DHT22;5446;50.826;4.380;2023-06-26T15:00:35;23.60;99.90
10788;DHT22;5446;50.826;4.380;2023-06-26T15:03:01;23.70;99.90
10788;DHT22;5446;50.826;4.380;2023-06-26T15:05:27;23.70;99.90
10788;DHT22;5446;50.826;4.380;2023-06-26T15:07:53;23.50;99.90
10788;DHT22;5446;50.826;4.380;2023-06-26T15:10:18;23.40;99.90
10788;DHT22;5446;50.826;4.380;2023-06-26T15:12:45;23.40;99.90
10788;DHT22;5446;50.826;4.380;2023-06-26T15:15:11;23.40;99.90
10788;DHT22;5446;50.826;4.380;2023-06-26T15:17:37;23.50;99.90
10788;DHT22;5446;50.826;4.380;2023-06-26T15:20:03;23.70;99.90
10788;DHT22;5446;50.826;4.380;2023-06-26T15:22:28;23.50;99.90
10788;DHT22;5446;50.826;4.380;2023-06-26T15:24:54;23.50;99.90
10788;DHT22;5446;50.826;4.380;2023-06-26T15:27:20;23.20;99.90
10788;DHT22;5446;50.826;4.380;2023-06-26T15:29:55;23.20;99.90
10788;DHT22;5446;50.826;4.380;2023-06-26T15:32:20;23.80;99.90
10788;DHT22;5446;50.826;4.380;2023-06-26T15:34:46;23.90;99.90
10788;DHT22;5446;50.826;4.380;2023-06-26T15:37:12;24.00;99.90
10788;DHT22;5446;50.826;4.380;2023-06-26T15:39:38;23.80;99.90
10788;DHT22;5446;50.826;4.380;2023-06-26T15:42:05;23.60;99.90
10788;DHT22;5446;50.826;4.380;2023-06-26T15:44:31;23.10;99.90
10788;DHT22;5446;50.826;4.380;2023-06-26T15:47:00;23.00;99.90
10788;DHT22;5446;50.826;4.380;2023-06-26T15:49:25;23.40;99.90
10788;DHT22;5446;50.826;4.380;2023-06-26T15:51:51;23.40;99.90
10788;DHT22;5446;50.826;4.380;2023-06-26T15:54:17;23.20;99.90
10788;DHT22;5446;50.826;4.380;2023-06-26T15:56:42;23.30;99.90
10788;DHT22;5446;50.826;4.380;2023-06-26T15:59:09;23.00;99.90
10788;DHT22;5446;50.826;4.380;2023-06-26T16:01:35;23.20;99.90
10788;DHT22;5446;50.826;4.380;2023-06-26T16:04:00;23.20;99.90
10788;DHT22;5446;50.826;4.380;2023-06-26T16:06:26;23.10;99.90